createdAt,value
2022-08-05T00:00:50.577Z,19.22
2022-08-05T00:01:50.443Z,19.20
2022-08-05T00:02:52.275Z,19.19
2022-08-05T00:03:50.766Z,19.18
2022-08-05T00:04:55.408Z,19.17
2022-08-05T00:06:06.487Z,19.17
2022-08-05T00:06:52.095Z,19.17
2022-08-05T00:07:59.862Z,19.17
2022-08-05T00:08:52.425Z,19.17
2022-08-05T00:09:51.405Z,19.17
2022-08-05T00:10:51.514Z,19.16
2022-08-05T00:11:56.084Z,19.16
2022-08-05T00:12:56.850Z,19.15
2022-08-05T00:13:52.869Z,19.15
2022-08-05T00:14:52.083Z,19.15
2022-08-05T00:15:55.779Z,19.15
2022-08-05T00:16:53.970Z,19.14
2022-08-05T00:17:52.388Z,19.11
2022-08-05T00:18:52.514Z,19.09
2022-08-05T00:20:02.778Z,19.08
2022-08-05T00:20:53.775Z,19.07
2022-08-05T00:21:53.889Z,19.06
2022-08-05T00:22:59.652Z,19.04
2022-08-05T00:24:10.708Z,19.00
2022-08-05T00:24:55.174Z,18.93
2022-08-05T00:25:54.014Z,18.86
2022-08-05T00:26:53.549Z,18.81
2022-08-05T00:27:53.672Z,18.77
2022-08-05T00:28:53.797Z,18.74
2022-08-05T00:29:54.067Z,18.72
2022-08-05T00:30:54.097Z,18.70
2022-08-05T00:32:13.507Z,18.68
2022-08-05T00:32:55.340Z,18.66
2022-08-05T00:34:56.128Z,18.65
2022-08-05T00:35:06.948Z,18.63
2022-08-05T00:36:16.083Z,18.62
2022-08-05T00:37:10.880Z,18.59
2022-08-05T00:37:56.021Z,18.55
2022-08-05T00:38:55.215Z,18.50
2022-08-05T00:39:57.952Z,18.45
2022-08-05T00:40:55.550Z,18.41
2022-08-05T00:41:55.905Z,18.38
2022-08-05T00:42:55.650Z,18.37
2022-08-05T00:43:55.802Z,18.35
2022-08-05T00:44:55.938Z,18.33
2022-08-05T00:45:56.147Z,18.31
2022-08-05T00:47:02.232Z,18.30
2022-08-05T00:48:05.631Z,18.31
2022-08-05T00:48:57.502Z,18.31
2022-08-05T00:49:56.571Z,18.33
2022-08-05T00:50:56.919Z,18.35
2022-08-05T00:51:56.808Z,18.36
2022-08-05T00:52:56.958Z,18.37
2022-08-05T00:54:02.711Z,18.35
2022-08-05T00:54:58.335Z,18.33
2022-08-05T00:55:57.555Z,18.32
2022-08-05T00:56:57.488Z,18.32
2022-08-05T00:57:58.972Z,18.34
2022-08-05T00:58:57.748Z,18.35
2022-08-05T00:59:57.886Z,18.36
2022-08-05T01:00:58.251Z,18.37
2022-08-05T01:01:58.155Z,18.38
2022-08-05T01:02:59.891Z,18.39
2022-08-05T01:03:58.365Z,18.40
2022-08-05T01:04:58.495Z,18.40
2022-08-05T01:05:58.616Z,18.40
2022-08-05T01:06:58.749Z,18.39
2022-08-05T01:08:42.323Z,18.38
2022-08-05T01:08:59.965Z,18.35
2022-08-05T01:09:59.125Z,18.31
2022-08-05T01:10:59.256Z,18.28
2022-08-05T01:12:04.498Z,18.26
2022-08-05T01:13:05.228Z,18.25
2022-08-05T01:14:00.655Z,18.22
2022-08-05T01:14:59.788Z,18.17
2022-08-05T01:15:59.917Z,18.10
2022-08-05T01:17:00.043Z,18.05
2022-08-05T01:18:00.314Z,18.02
2022-08-05T01:19:00.830Z,18.00
2022-08-05T01:20:02.001Z,17.99
2022-08-05T01:21:00.583Z,17.97
2022-08-05T01:22:00.733Z,17.96
2022-08-05T01:23:00.914Z,17.96
2022-08-05T01:24:02.074Z,17.95
2022-08-05T01:25:02.112Z,17.94
2022-08-05T01:26:01.223Z,17.93
2022-08-05T01:27:01.357Z,17.93
2022-08-05T01:28:02.503Z,17.93
2022-08-05T01:29:03.574Z,17.92
2022-08-05T01:30:01.882Z,17.90
2022-08-05T01:31:03.053Z,17.87
2022-08-05T01:32:02.004Z,17.83
2022-08-05T01:33:02.142Z,17.80
2022-08-05T01:34:02.282Z,17.75
2022-08-05T01:35:02.471Z,17.71
2022-08-05T01:36:02.563Z,17.69
2022-08-05T01:37:02.691Z,17.69
2022-08-05T01:38:02.822Z,17.69
2022-08-05T01:39:02.996Z,17.68
2022-08-05T01:40:03.203Z,17.68
2022-08-05T01:41:03.234Z,17.69
2022-08-05T01:42:03.378Z,17.70
2022-08-05T01:43:03.670Z,17.68
2022-08-05T01:44:03.650Z,17.67
2022-08-05T01:45:04.840Z,17.67
2022-08-05T01:46:07.236Z,17.67
2022-08-05T01:47:05.185Z,17.65
2022-08-05T01:48:04.108Z,17.63
2022-08-05T01:49:22.633Z,17.61
2022-08-05T01:50:05.954Z,17.60
2022-08-05T01:51:12.317Z,17.60
2022-08-05T01:52:17.636Z,17.59
2022-08-05T01:53:05.705Z,17.57
2022-08-05T01:54:04.821Z,17.56
2022-08-05T01:55:04.948Z,17.57
2022-08-05T01:56:05.147Z,17.60
2022-08-05T01:58:11.972Z,17.61
2022-08-05T01:58:12.975Z,17.59
2022-08-05T01:59:06.597Z,17.58
2022-08-05T02:00:05.669Z,17.57
2022-08-05T02:01:06.971Z,17.56
2022-08-05T02:02:05.931Z,17.52
2022-08-05T02:03:06.997Z,17.49
2022-08-05T02:04:07.144Z,17.47
2022-08-05T02:05:06.256Z,17.47
2022-08-05T02:06:33.360Z,17.47
2022-08-05T02:07:07.566Z,17.48
2022-08-05T02:08:06.615Z,17.48
2022-08-05T02:09:06.733Z,17.48
2022-08-05T02:10:07.907Z,17.46
2022-08-05T02:11:06.946Z,17.43
2022-08-05T02:12:10.178Z,17.37
2022-08-05T02:13:16.207Z,17.32
2022-08-05T02:14:08.356Z,17.28
2022-08-05T02:15:07.500Z,17.25
2022-08-05T02:16:08.646Z,17.23
2022-08-05T02:17:08.763Z,17.21
2022-08-05T02:18:32.992Z,17.19
2022-08-05T02:19:08.975Z,17.19
2022-08-05T02:20:08.155Z,17.19
2022-08-05T02:21:15.033Z,17.19
2022-08-05T02:22:09.401Z,17.19
2022-08-05T02:23:09.491Z,17.19
2022-08-05T02:24:08.624Z,17.19
2022-08-05T02:25:08.811Z,17.20
2022-08-05T02:26:08.993Z,17.20
2022-08-05T02:27:10.444Z,17.18
2022-08-05T02:28:09.212Z,17.15
2022-08-05T02:29:09.291Z,17.12
2022-08-05T02:30:10.456Z,17.08
2022-08-05T02:31:14.818Z,17.04
2022-08-05T02:32:10.877Z,17.01
2022-08-05T02:33:09.854Z,16.99
2022-08-05T02:34:10.204Z,16.97
2022-08-05T02:35:14.230Z,16.94
2022-08-05T02:36:10.230Z,16.93
2022-08-05T02:37:10.360Z,16.93
2022-08-05T02:38:10.621Z,16.94
2022-08-05T02:39:11.657Z,16.95
2022-08-05T02:40:10.739Z,16.95
2022-08-05T02:41:17.221Z,16.95
2022-08-05T02:42:12.019Z,16.94
2022-08-05T02:43:12.269Z,16.94
2022-08-05T02:44:13.013Z,16.94
2022-08-05T02:45:11.390Z,16.95
2022-08-05T02:46:11.540Z,16.96
2022-08-05T02:47:12.660Z,16.97
2022-08-05T02:48:12.870Z,16.98
2022-08-05T02:49:11.950Z,17.00
2022-08-05T02:50:12.258Z,17.02
2022-08-05T02:51:12.233Z,17.03
2022-08-05T02:52:13.646Z,17.04
2022-08-05T02:53:16.082Z,17.04
2022-08-05T02:54:36.190Z,17.03
2022-08-05T02:55:13.927Z,17.01
2022-08-05T02:56:18.613Z,17.00
2022-08-05T02:58:10.279Z,16.99
2022-08-05T02:58:14.269Z,16.99
2022-08-05T02:59:13.266Z,16.99
2022-08-05T03:00:13.478Z,17.00
2022-08-05T03:01:13.614Z,17.02
2022-08-05T03:02:13.666Z,17.02
2022-08-05T03:03:13.756Z,17.02
2022-08-05T03:04:14.351Z,17.02
2022-08-05T03:05:14.075Z,17.01
2022-08-05T03:06:53.575Z,17.00
2022-08-05T03:07:17.615Z,17.01
2022-08-05T03:08:16.530Z,17.03
2022-08-05T03:09:17.660Z,17.05
2022-08-05T03:10:15.707Z,17.07
2022-08-05T03:11:56.530Z,17.08
2022-08-05T03:12:15.874Z,17.08
2022-08-05T03:13:16.656Z,17.08
2022-08-05T03:14:15.166Z,17.10
2022-08-05T03:15:15.296Z,17.11
2022-08-05T03:16:15.773Z,17.12
2022-08-05T03:17:15.579Z,17.13
2022-08-05T03:18:17.441Z,17.14
2022-08-05T03:19:29.486Z,17.15
2022-08-05T03:20:16.893Z,17.15
2022-08-05T03:21:16.243Z,17.13
2022-08-05T03:22:19.030Z,17.13
2022-08-05T03:23:17.294Z,17.13
2022-08-05T03:24:16.414Z,17.13
2022-08-05T03:25:32.786Z,17.13
2022-08-05T03:26:31.390Z,17.14
2022-08-05T03:27:17.774Z,17.13
2022-08-05T03:28:18.884Z,17.12
2022-08-05T03:29:17.278Z,17.12
2022-08-05T03:30:17.161Z,17.12
2022-08-05T03:31:25.868Z,17.12
2022-08-05T03:32:18.550Z,17.12
2022-08-05T03:33:17.532Z,17.12
2022-08-05T03:34:17.657Z,17.13
2022-08-05T03:35:17.782Z,17.14
2022-08-05T03:36:17.905Z,17.15
2022-08-05T03:37:19.230Z,17.16
2022-08-05T03:38:32.715Z,17.17
2022-08-05T03:39:20.098Z,17.18
2022-08-05T03:40:31.431Z,17.20
2022-08-05T03:41:19.560Z,17.21
2022-08-05T03:42:18.639Z,17.21
2022-08-05T03:44:08.597Z,17.23
2022-08-05T03:44:20.199Z,17.24
2022-08-05T03:45:21.535Z,17.25
2022-08-05T03:46:19.159Z,17.26
2022-08-05T03:47:19.288Z,17.26
2022-08-05T03:48:21.817Z,17.25
2022-08-05T03:49:19.559Z,17.23
2022-08-05T03:50:19.659Z,17.20
2022-08-05T03:52:36.465Z,17.17
2022-08-05T03:52:37.588Z,17.15
2022-08-05T03:55:50.403Z,17.12
2022-08-05T03:55:52.302Z,17.14
2022-08-05T03:56:04.042Z,17.10
2022-08-05T03:56:26.901Z,17.08
2022-08-05T03:57:21.557Z,17.08
2022-08-05T03:58:21.807Z,17.07
2022-08-05T03:59:21.819Z,17.07
2022-08-05T04:00:20.906Z,17.06
2022-08-05T04:01:21.137Z,17.04
2022-08-05T04:02:38.888Z,17.02
2022-08-05T04:03:28.304Z,17.01
2022-08-05T04:04:22.426Z,17.01
2022-08-05T04:05:23.147Z,17.02
2022-08-05T04:06:21.746Z,17.01
2022-08-05T04:07:22.093Z,17.01
2022-08-05T04:08:34.972Z,17.01
2022-08-05T04:09:25.930Z,16.99
2022-08-05T04:10:22.306Z,16.98
2022-08-05T04:11:22.345Z,16.97
2022-08-05T04:12:23.499Z,16.97
2022-08-05T04:13:22.587Z,16.96
2022-08-05T04:14:29.864Z,16.97
2022-08-05T04:15:24.481Z,16.98
2022-08-05T04:16:25.234Z,16.99
2022-08-05T04:17:24.258Z,16.99
2022-08-05T04:18:25.582Z,16.98
2022-08-05T04:19:23.522Z,16.99
2022-08-05T04:20:23.506Z,17.00
2022-08-05T04:22:08.358Z,17.02
2022-08-05T04:22:24.762Z,17.05
2022-08-05T04:24:00.289Z,17.06
2022-08-05T04:24:25.043Z,17.07
2022-08-05T04:25:56.638Z,17.06
2022-08-05T04:26:25.302Z,17.05
2022-08-05T04:27:41.793Z,17.05
2022-08-05T04:28:31.034Z,17.06
2022-08-05T04:29:27.177Z,17.06
2022-08-05T04:30:24.806Z,17.05
2022-08-05T04:31:27.637Z,17.05
2022-08-05T04:32:31.083Z,17.06
2022-08-05T04:34:17.623Z,17.08
2022-08-05T04:34:33.743Z,17.10
2022-08-05T04:35:26.449Z,17.11
2022-08-05T04:36:46.121Z,17.13
2022-08-05T04:38:01.090Z,17.14
2022-08-05T04:38:39.604Z,17.15
2022-08-05T04:39:27.517Z,17.15
2022-08-05T04:40:26.119Z,17.16
2022-08-05T04:41:36.730Z,17.16
2022-08-05T04:42:27.455Z,17.15
2022-08-05T04:43:26.528Z,17.15
2022-08-05T04:44:29.917Z,17.15
2022-08-05T04:45:48.322Z,17.15
2022-08-05T04:46:28.672Z,17.16
2022-08-05T04:47:27.278Z,17.17
2022-08-05T04:48:28.521Z,17.18
2022-08-05T04:49:38.498Z,17.18
2022-08-05T04:50:37.228Z,17.15
2022-08-05T04:51:30.613Z,17.12
2022-08-05T04:52:28.140Z,17.09
2022-08-05T04:53:27.797Z,17.07
2022-08-05T04:54:28.948Z,17.05
2022-08-05T04:56:14.922Z,17.04
2022-08-05T04:56:35.096Z,17.04
2022-08-05T04:57:29.690Z,17.03
2022-08-05T04:58:29.487Z,17.02
2022-08-05T04:59:36.797Z,17.03
2022-08-05T05:00:29.836Z,17.04
2022-08-05T05:01:33.604Z,17.05
2022-08-05T05:02:37.402Z,17.04
2022-08-05T05:03:41.966Z,17.02
2022-08-05T05:04:30.248Z,17.00
2022-08-05T05:05:29.500Z,16.99
2022-08-05T05:06:37.051Z,16.99
2022-08-05T05:07:32.878Z,16.98
2022-08-05T05:08:30.935Z,16.96
2022-08-05T05:09:29.835Z,16.94
2022-08-05T05:10:29.966Z,16.93
2022-08-05T05:11:52.869Z,16.94
2022-08-05T05:12:31.236Z,16.96
2022-08-05T05:13:32.438Z,16.97
2022-08-05T05:14:32.303Z,16.99
2022-08-05T05:15:57.087Z,17.01
2022-08-05T05:16:32.017Z,17.02
2022-08-05T05:17:56.433Z,17.04
2022-08-05T05:18:33.895Z,17.06
2022-08-05T05:19:36.765Z,17.08
2022-08-05T05:20:32.283Z,17.08
2022-08-05T05:21:33.099Z,17.07
2022-08-05T05:22:31.575Z,17.05
2022-08-05T05:23:39.476Z,17.04
2022-08-05T05:24:57.109Z,17.04
2022-08-05T05:25:40.990Z,17.03
2022-08-05T05:26:33.185Z,17.03
2022-08-05T05:27:41.720Z,17.03
2022-08-05T05:28:37.406Z,17.04
2022-08-05T05:30:04.479Z,17.03
2022-08-05T05:30:33.695Z,17.02
2022-08-05T05:32:15.757Z,17.93
2022-08-05T05:33:17.042Z,17.50
2022-08-05T05:34:13.166Z,17.24
2022-08-05T05:35:13.336Z,17.11
2022-08-05T05:36:14.625Z,17.04
2022-08-05T05:37:13.595Z,17.00
2022-08-05T05:38:14.187Z,16.99
2022-08-05T05:39:13.835Z,16.99
2022-08-05T05:40:14.015Z,16.99
2022-08-05T05:41:14.195Z,16.99
2022-08-05T05:42:14.201Z,16.99
2022-08-05T05:43:14.335Z,17.00
2022-08-05T05:44:35.980Z,17.01
2022-08-05T05:45:15.767Z,17.03
2022-08-05T05:46:17.221Z,17.05
2022-08-05T05:47:21.769Z,17.07
2022-08-05T05:48:16.278Z,17.07
2022-08-05T05:49:22.854Z,17.08
2022-08-05T05:50:16.465Z,17.09
2022-08-05T05:51:16.162Z,17.09
2022-08-05T05:52:26.393Z,17.09
2022-08-05T05:53:21.110Z,17.10
2022-08-05T05:54:16.786Z,17.10
2022-08-05T05:55:16.122Z,17.10
2022-08-05T05:56:16.021Z,17.11
2022-08-05T05:57:19.395Z,17.10
2022-08-05T05:58:16.283Z,17.09
2022-08-05T05:59:16.402Z,17.06
2022-08-05T06:00:16.811Z,17.05
2022-08-05T06:01:16.680Z,17.05
2022-08-05T06:02:16.948Z,17.04
2022-08-05T06:03:40.255Z,17.03
2022-08-05T06:04:18.138Z,17.02
2022-08-05T06:05:17.439Z,17.00
2022-08-05T06:06:17.339Z,17.01
2022-08-05T06:07:17.571Z,17.01
2022-08-05T06:08:32.448Z,17.01
2022-08-05T06:09:25.793Z,16.98
2022-08-05T06:10:18.867Z,16.95
2022-08-05T06:11:17.977Z,16.92
2022-08-05T06:12:18.340Z,16.91
2022-08-05T06:13:18.373Z,16.90
2022-08-05T06:14:18.380Z,16.91
2022-08-05T06:15:23.909Z,16.91
2022-08-05T06:16:30.168Z,16.92
2022-08-05T06:17:52.463Z,16.93
2022-08-05T06:18:19.869Z,16.93
2022-08-05T06:19:26.283Z,16.93
2022-08-05T06:20:21.703Z,16.95
2022-08-05T06:21:19.247Z,16.97
2022-08-05T06:22:19.466Z,16.99
2022-08-05T06:23:19.527Z,17.00
2022-08-05T06:24:25.786Z,17.02
2022-08-05T06:25:25.339Z,17.04
2022-08-05T06:26:24.964Z,17.05
2022-08-05T06:28:10.872Z,17.06
2022-08-05T06:28:21.921Z,17.08
2022-08-05T06:29:42.838Z,17.11
2022-08-05T06:30:21.532Z,17.13
2022-08-05T06:31:22.048Z,17.14
2022-08-05T06:32:26.090Z,17.14
2022-08-05T06:33:44.406Z,17.14
2022-08-05T06:34:21.964Z,17.13
2022-08-05T06:36:03.031Z,17.14
2022-08-05T06:36:26.047Z,17.14
2022-08-05T06:37:56.818Z,17.14
2022-08-05T06:38:36.745Z,17.15
2022-08-05T06:39:26.911Z,17.17
2022-08-05T06:40:28.107Z,17.19
2022-08-05T06:41:22.784Z,17.22
2022-08-05T06:42:21.986Z,17.22
2022-08-05T06:43:58.329Z,17.21
2022-08-05T06:44:23.151Z,17.20
2022-08-05T06:45:45.008Z,17.19
2022-08-05T06:46:23.433Z,17.19
2022-08-05T06:48:11.802Z,17.19
2022-08-05T06:48:52.887Z,17.17
2022-08-05T06:50:00.310Z,17.15
2022-08-05T06:50:23.914Z,17.14
2022-08-05T06:51:30.245Z,17.14
2022-08-05T06:52:37.336Z,17.13
2022-08-05T06:53:28.408Z,17.11
2022-08-05T06:54:25.842Z,17.09
2022-08-05T06:55:23.580Z,17.07
2022-08-05T06:56:26.369Z,17.05
2022-08-05T06:57:57.270Z,17.02
2022-08-05T06:58:34.882Z,16.97
2022-08-05T06:59:25.001Z,16.91
2022-08-05T07:00:24.666Z,16.89
2022-08-05T07:01:27.633Z,16.89
2022-08-05T07:02:25.371Z,16.90
2022-08-05T07:03:28.152Z,16.88
2022-08-05T07:04:25.850Z,16.85
2022-08-05T07:05:31.840Z,16.83
2022-08-05T07:06:25.869Z,16.78
2022-08-05T07:07:43.102Z,16.70
2022-08-05T07:08:26.132Z,16.62
2022-08-05T07:09:25.256Z,16.57
2022-08-05T07:10:32.319Z,16.54
2022-08-05T07:11:26.520Z,16.52
2022-08-05T07:12:26.639Z,16.54
2022-08-05T07:13:56.888Z,16.56
2022-08-05T07:14:29.206Z,16.57
2022-08-05T07:15:34.790Z,16.55
2022-08-05T07:17:56.886Z,16.53
2022-08-05T07:18:00.753Z,16.50
2022-08-05T07:18:29.987Z,16.45
2022-08-05T07:19:58.010Z,16.41
2022-08-05T07:20:33.488Z,16.40
2022-08-05T07:21:27.748Z,16.40
2022-08-05T07:22:30.081Z,16.40
2022-08-05T07:23:29.698Z,16.41
2022-08-05T07:24:28.719Z,16.40
2022-08-05T07:25:55.120Z,16.37
2022-08-05T07:26:28.347Z,16.34
2022-08-05T07:27:56.634Z,16.32
2022-08-05T07:28:28.604Z,16.30
2022-08-05T07:30:22.858Z,16.29
2022-08-05T07:30:33.449Z,16.27
2022-08-05T07:31:40.787Z,16.24
2022-08-05T07:32:29.094Z,16.20
2022-08-05T07:33:35.027Z,16.19
2022-08-05T07:34:29.305Z,16.19
2022-08-05T07:36:04.970Z,16.18
2022-08-05T07:36:29.673Z,16.18
2022-08-05T07:37:29.106Z,16.18
2022-08-05T07:38:34.192Z,16.17
2022-08-05T07:40:26.088Z,16.13
2022-08-05T07:40:32.426Z,16.07
2022-08-05T07:42:13.011Z,16.04
2022-08-05T07:42:33.588Z,16.01
2022-08-05T07:43:29.464Z,15.98
2022-08-05T07:44:29.566Z,15.96
2022-08-05T07:45:31.293Z,15.94
2022-08-05T07:46:30.951Z,15.92
2022-08-05T07:47:41.943Z,15.89
2022-08-05T07:49:02.195Z,15.86
2022-08-05T07:49:31.123Z,15.85
2022-08-05T07:50:32.484Z,15.84
2022-08-05T07:51:37.308Z,15.83
2022-08-05T07:52:31.476Z,15.81
2022-08-05T07:53:36.977Z,15.80
2022-08-05T07:54:38.563Z,15.78
2022-08-05T07:56:04.825Z,15.75
2022-08-05T07:57:02.526Z,15.73
2022-08-05T07:57:55.276Z,15.71
2022-08-05T07:58:57.601Z,15.70
2022-08-05T07:59:40.167Z,15.69
2022-08-05T08:00:32.468Z,15.68
2022-08-05T08:01:31.632Z,15.68
2022-08-05T08:03:14.756Z,15.69
2022-08-05T08:03:44.132Z,15.69
2022-08-05T08:04:37.462Z,15.66
2022-08-05T08:05:33.090Z,15.61
2022-08-05T08:06:33.190Z,15.59
2022-08-05T08:07:39.713Z,15.57
2022-08-05T08:08:33.590Z,15.56
2022-08-05T08:09:32.559Z,15.56
2022-08-05T08:10:32.702Z,15.58
2022-08-05T08:11:47.853Z,15.60
2022-08-05T08:12:49.486Z,15.62
2022-08-05T08:13:49.251Z,15.62
2022-08-05T08:14:34.220Z,15.63
2022-08-05T08:16:33.709Z,15.64
2022-08-05T08:16:51.029Z,15.66
2022-08-05T08:17:35.367Z,15.64
2022-08-05T08:18:33.733Z,15.62
2022-08-05T08:20:22.275Z,15.62
2022-08-05T08:20:59.850Z,15.63
2022-08-05T08:21:35.092Z,15.61
2022-08-05T08:22:34.191Z,15.58
2022-08-05T08:24:02.637Z,15.56
2022-08-05T08:24:51.397Z,15.54
2022-08-05T08:25:59.979Z,15.53
2022-08-05T08:26:35.635Z,15.53
2022-08-05T08:27:42.327Z,15.54
2022-08-05T08:28:55.047Z,15.54
2022-08-05T08:30:05.466Z,15.56
2022-08-05T08:30:47.353Z,15.59
2022-08-05T08:31:36.265Z,15.60
2022-08-05T08:32:35.416Z,15.60
2022-08-05T08:33:37.825Z,15.62
2022-08-05T08:34:35.694Z,15.63
2022-08-05T08:35:41.100Z,15.64
2022-08-05T08:36:49.060Z,15.66
2022-08-05T08:37:37.026Z,15.69
2022-08-05T08:38:37.881Z,15.74
2022-08-05T08:39:37.377Z,15.78
2022-08-05T08:40:36.614Z,15.82
2022-08-05T08:41:50.608Z,15.84
2022-08-05T08:42:46.713Z,15.87
2022-08-05T08:45:22.721Z,15.89
2022-08-05T08:45:24.013Z,15.90
2022-08-05T08:45:38.058Z,15.90
2022-08-05T08:46:37.244Z,15.88
2022-08-05T08:48:06.847Z,15.85
2022-08-05T08:49:02.903Z,15.83
2022-08-05T08:50:06.178Z,15.77
2022-08-05T08:51:03.847Z,15.70
2022-08-05T08:52:03.025Z,15.65
2022-08-05T08:52:38.880Z,15.63
2022-08-05T08:53:37.973Z,15.63
2022-08-05T08:54:39.083Z,15.63
2022-08-05T08:56:02.948Z,15.60
2022-08-05T08:56:39.664Z,15.57
2022-08-05T08:57:48.182Z,15.55
2022-08-05T08:58:44.532Z,15.55
2022-08-05T08:59:41.806Z,15.56
2022-08-05T09:00:39.858Z,15.58
2022-08-05T09:01:42.579Z,15.63
2022-08-05T09:02:39.011Z,15.65
2022-08-05T09:03:40.355Z,15.66
2022-08-05T09:04:58.386Z,15.66
2022-08-05T09:06:07.582Z,15.66
2022-08-05T09:06:40.605Z,15.66
2022-08-05T09:07:56.996Z,15.67
2022-08-05T09:08:40.759Z,15.68
2022-08-05T09:09:39.873Z,15.70
2022-08-05T09:10:40.232Z,15.72
2022-08-05T09:11:51.025Z,15.75
2022-08-05T09:12:41.240Z,15.76
2022-08-05T09:14:00.793Z,15.73
2022-08-05T09:14:57.071Z,15.68
2022-08-05T09:15:41.539Z,15.66
2022-08-05T09:16:40.668Z,15.67
2022-08-05T09:17:45.742Z,15.71
2022-08-05T09:18:42.919Z,15.79
2022-08-05T09:20:01.712Z,15.85
2022-08-05T09:20:42.176Z,15.90
2022-08-05T09:22:22.942Z,15.91
2022-08-05T09:22:42.608Z,15.92
2022-08-05T09:23:43.843Z,15.90
2022-08-05T09:24:41.738Z,15.88
2022-08-05T09:26:03.017Z,15.87
2022-08-05T09:26:43.758Z,15.90
2022-08-05T09:28:04.857Z,15.94
2022-08-05T09:28:43.286Z,15.98
2022-08-05T09:29:47.712Z,15.98
2022-08-05T09:30:43.466Z,15.96
2022-08-05T09:32:42.251Z,15.96
2022-08-05T09:32:46.907Z,15.97
2022-08-05T09:33:42.936Z,15.97
2022-08-05T09:34:43.015Z,15.94
2022-08-05T09:35:43.130Z,15.93
2022-08-05T09:36:45.661Z,15.94
2022-08-05T09:38:12.631Z,15.96
2022-08-05T09:38:44.473Z,15.98
2022-08-05T09:39:46.913Z,15.99
2022-08-05T09:40:52.425Z,16.01
2022-08-05T09:41:44.866Z,16.01
2022-08-05T09:42:44.983Z,16.03
2022-08-05T09:43:44.083Z,16.06
2022-08-05T09:44:45.375Z,16.11
2022-08-05T09:46:07.083Z,16.16
2022-08-05T09:46:51.630Z,16.20
2022-08-05T09:47:55.139Z,16.22
2022-08-05T09:48:55.396Z,16.21
2022-08-05T09:50:00.920Z,16.18
2022-08-05T09:50:46.026Z,16.18
2022-08-05T09:51:45.032Z,16.19
2022-08-05T09:52:46.211Z,16.21
2022-08-05T09:53:54.819Z,16.20
2022-08-05T09:54:46.422Z,16.21
2022-08-05T09:55:56.289Z,16.23
2022-08-05T09:56:51.482Z,16.26
2022-08-05T09:57:46.751Z,16.28
2022-08-05T09:58:45.881Z,16.30
2022-08-05T09:59:46.154Z,16.35
2022-08-05T10:00:46.171Z,16.40
2022-08-05T10:01:46.386Z,16.41
2022-08-05T10:02:46.432Z,16.41
2022-08-05T10:03:59.575Z,16.39
2022-08-05T10:04:47.682Z,16.37
2022-08-05T10:05:46.751Z,16.36
2022-08-05T10:06:54.762Z,16.37
2022-08-05T10:08:34.737Z,16.38
2022-08-05T10:08:54.026Z,16.39
2022-08-05T10:09:48.294Z,16.40
2022-08-05T10:10:48.471Z,16.41
2022-08-05T10:11:48.532Z,16.44
2022-08-05T10:12:49.235Z,16.49
2022-08-05T10:13:49.194Z,16.56
2022-08-05T10:14:47.870Z,16.62
2022-08-05T10:15:48.069Z,16.69
2022-08-05T10:16:52.337Z,16.75
2022-08-05T10:17:56.555Z,16.78
2022-08-05T10:18:49.350Z,16.83
2022-08-05T10:20:03.577Z,16.92
2022-08-05T10:20:49.748Z,17.02
2022-08-05T10:21:48.671Z,17.10
2022-08-05T10:22:51.079Z,17.17
2022-08-05T10:23:56.113Z,17.25
2022-08-05T10:24:50.657Z,17.34
2022-08-05T10:25:49.198Z,17.43
2022-08-05T10:26:51.935Z,17.48
2022-08-05T10:28:13.458Z,17.46
2022-08-05T10:28:50.638Z,17.42
2022-08-05T10:30:06.452Z,17.36
2022-08-05T10:32:49.269Z,17.31
2022-08-05T10:32:51.790Z,17.25
2022-08-05T10:32:59.422Z,17.20
2022-08-05T10:33:54.193Z,17.14
2022-08-05T10:34:50.439Z,17.09
2022-08-05T10:35:58.975Z,17.05
2022-08-05T10:36:51.555Z,17.03
2022-08-05T10:37:50.679Z,17.02
2022-08-05T10:38:50.819Z,17.03
2022-08-05T10:40:03.496Z,17.03
2022-08-05T10:40:52.187Z,17.02
2022-08-05T10:41:52.256Z,17.02
2022-08-05T10:42:51.448Z,17.04
2022-08-05T10:43:51.526Z,17.09
2022-08-05T10:44:51.751Z,17.19
2022-08-05T10:45:51.740Z,17.38
2022-08-05T10:46:54.028Z,17.63
2022-08-05T10:48:30.600Z,17.86
2022-08-05T10:48:58.868Z,18.04
2022-08-05T10:50:32.146Z,18.12
2022-08-05T10:50:53.345Z,18.14
2022-08-05T10:51:59.823Z,18.14
2022-08-05T10:52:53.595Z,18.14
2022-08-05T10:53:54.491Z,18.13
2022-08-05T10:54:56.997Z,18.16
2022-08-05T10:56:05.100Z,18.22
2022-08-05T10:56:54.145Z,18.31
2022-08-05T10:57:53.266Z,18.41
2022-08-05T10:58:53.425Z,18.49
2022-08-05T11:00:03.709Z,18.57
2022-08-05T11:00:55.346Z,18.66
2022-08-05T11:02:05.062Z,18.78
2022-08-05T11:02:54.942Z,18.92
2022-08-05T11:03:54.124Z,19.08
2022-08-05T11:04:54.224Z,19.24
2022-08-05T11:05:54.315Z,19.40
2022-08-05T11:06:55.423Z,19.56
2022-08-05T11:08:01.776Z,19.75
2022-08-05T11:08:55.665Z,19.91
2022-08-05T11:10:04.035Z,20.00
2022-08-05T11:11:00.981Z,20.05
2022-08-05T11:11:56.082Z,20.10
2022-08-05T11:12:55.713Z,20.15
2022-08-05T11:13:58.210Z,20.21
2022-08-05T11:15:11.883Z,20.27
2022-08-05T11:16:00.155Z,20.28
2022-08-05T11:16:59.340Z,20.26
2022-08-05T11:18:07.474Z,20.28
2022-08-05T11:18:56.924Z,20.34
2022-08-05T11:20:11.258Z,20.41
2022-08-05T11:20:57.253Z,20.43
2022-08-05T11:21:56.232Z,20.44
2022-08-05T11:23:01.983Z,20.47
2022-08-05T11:24:04.240Z,20.50
2022-08-05T11:25:16.361Z,20.58
2022-08-05T11:26:04.838Z,20.71
2022-08-05T11:26:57.898Z,20.83
2022-08-05T11:28:00.427Z,20.95
2022-08-05T11:28:57.122Z,21.04
2022-08-05T11:29:57.234Z,21.03
2022-08-05T11:30:58.339Z,20.93
2022-08-05T11:32:01.105Z,20.83
2022-08-05T11:32:57.564Z,20.77
2022-08-05T11:33:57.733Z,20.81
2022-08-05T11:34:57.846Z,20.93
2022-08-05T11:36:07.897Z,21.07
2022-08-05T11:36:59.210Z,21.16
2022-08-05T11:38:37.005Z,21.23
2022-08-05T11:38:59.692Z,21.31
2022-08-05T11:40:03.186Z,21.37
2022-08-05T11:41:03.609Z,21.40
2022-08-05T11:42:04.225Z,21.36
2022-08-05T11:42:58.833Z,21.27
2022-08-05T11:44:05.380Z,21.23
2022-08-05T11:45:00.049Z,21.26
2022-08-05T11:46:30.870Z,21.28
2022-08-05T11:47:11.708Z,21.30
2022-08-05T11:48:00.470Z,21.25
2022-08-05T11:48:59.620Z,21.18
2022-08-05T11:49:59.751Z,21.14
2022-08-05T11:50:59.912Z,21.12
2022-08-05T11:52:00.204Z,21.07
2022-08-05T11:53:00.271Z,21.03
2022-08-05T11:54:00.286Z,20.99
2022-08-05T11:55:07.291Z,20.94
2022-08-05T11:56:01.521Z,20.88
2022-08-05T11:57:00.662Z,20.82
2022-08-05T11:58:10.224Z,20.77
2022-08-05T11:59:01.881Z,20.73
2022-08-05T12:00:01.012Z,20.71
2022-08-05T12:01:01.130Z,20.68
2022-08-05T12:02:01.241Z,20.64
2022-08-05T12:03:01.458Z,20.61
2022-08-05T12:04:01.564Z,20.62
2022-08-05T12:05:07.540Z,20.70
2022-08-05T12:06:02.725Z,20.84
2022-08-05T12:07:01.914Z,21.01
2022-08-05T12:08:09.590Z,21.20
2022-08-05T12:09:03.218Z,21.37
2022-08-05T12:10:09.179Z,21.51
2022-08-05T12:11:04.146Z,21.67
2022-08-05T12:12:02.611Z,21.79
2022-08-05T12:13:02.634Z,21.92
2022-08-05T12:14:04.013Z,22.07
2022-08-05T12:15:02.819Z,22.19
2022-08-05T12:16:02.920Z,22.28
2022-08-05T12:17:04.090Z,22.37
2022-08-05T12:18:10.668Z,22.43
2022-08-05T12:19:04.731Z,22.40
2022-08-05T12:20:26.677Z,22.33
2022-08-05T12:21:04.510Z,22.23
2022-08-05T12:22:03.651Z,22.12
2022-08-05T12:23:04.770Z,22.03
2022-08-05T12:24:04.479Z,22.00
2022-08-05T12:25:04.113Z,21.99
2022-08-05T12:26:04.131Z,21.99
2022-08-05T12:27:09.903Z,22.04
2022-08-05T12:28:05.390Z,22.14
2022-08-05T12:29:04.458Z,22.28
2022-08-05T12:30:04.796Z,22.40
2022-08-05T12:31:04.730Z,22.45
2022-08-05T12:32:04.878Z,22.45
2022-08-05T12:33:07.501Z,22.38
2022-08-05T12:34:06.078Z,22.30
2022-08-05T12:35:05.359Z,22.27
2022-08-05T12:36:07.900Z,22.31
2022-08-05T12:37:05.597Z,22.34
2022-08-05T12:38:05.598Z,22.40
2022-08-05T12:39:05.714Z,22.51
2022-08-05T12:40:10.495Z,22.63
2022-08-05T12:41:12.297Z,22.70
2022-08-05T12:42:08.304Z,22.71
2022-08-05T12:43:06.168Z,22.70
2022-08-05T12:44:06.328Z,22.70
2022-08-05T12:45:09.408Z,22.73
2022-08-05T12:46:06.577Z,22.77
2022-08-05T12:47:07.716Z,22.79
2022-08-05T12:48:26.828Z,22.80
2022-08-05T12:49:13.879Z,22.81
2022-08-05T12:50:08.210Z,22.85
2022-08-05T12:51:07.217Z,22.90
2022-08-05T12:52:12.570Z,22.96
2022-08-05T12:53:08.387Z,22.99
2022-08-05T12:54:16.959Z,23.01
2022-08-05T12:55:08.818Z,23.05